createdAt,value
2018-05-24T00:03:32.200Z,18.40
2018-05-24T00:07:25.445Z,18.40
2018-05-24T00:11:19.309Z,18.40
2018-05-24T00:15:12.782Z,18.30
2018-05-24T00:19:05.949Z,18.30
2018-05-24T00:22:59.070Z,18.40
2018-05-24T00:26:52.262Z,18.40
2018-05-24T00:30:45.432Z,18.30
2018-05-24T00:34:38.730Z,18.20
2018-05-24T00:38:31.625Z,18.10
2018-05-24T00:42:25.770Z,18.10
2018-05-24T00:46:18.939Z,18.10
2018-05-24T00:50:12.945Z,18.10
2018-05-24T00:54:08.020Z,18.10
2018-05-24T00:58:01.565Z,18.00
2018-05-24T01:01:54.745Z,18.00
2018-05-24T01:05:48.067Z,17.90
2018-05-24T01:09:41.371Z,17.80
2018-05-24T01:13:34.544Z,17.70
2018-05-24T01:17:27.686Z,17.60
2018-05-24T01:21:20.844Z,17.40
2018-05-24T01:25:14.828Z,17.30
2018-05-24T01:29:08.009Z,17.30
2018-05-24T01:33:01.171Z,17.40
2018-05-24T01:37:06.444Z,17.40
2018-05-24T01:41:01.289Z,17.60
2018-05-24T01:44:55.241Z,17.70
2018-05-24T01:48:48.510Z,17.70
2018-05-24T01:52:42.070Z,17.70
2018-05-24T01:56:35.257Z,17.70
2018-05-24T02:00:28.469Z,17.70
2018-05-24T02:04:22.385Z,17.80
2018-05-24T02:08:15.554Z,17.70
2018-05-24T02:12:08.686Z,17.70
2018-05-24T02:16:01.882Z,17.80
2018-05-24T02:19:55.252Z,17.80
2018-05-24T02:23:48.629Z,17.70
2018-05-24T02:27:42.020Z,17.60
2018-05-24T02:31:35.225Z,17.70
2018-05-24T02:35:28.361Z,17.70
2018-05-24T02:39:21.755Z,17.70
2018-05-24T02:43:15.655Z,17.70
2018-05-24T02:47:08.789Z,17.70
2018-05-24T02:51:03.096Z,17.70
2018-05-24T02:54:56.977Z,17.70
2018-05-24T02:58:51.476Z,17.70
2018-05-24T03:02:48.817Z,17.70
2018-05-24T03:06:42.415Z,17.70
2018-05-24T03:10:35.641Z,17.60
2018-05-24T03:14:29.641Z,17.60
2018-05-24T03:18:22.730Z,17.60
2018-05-24T03:22:16.328Z,17.60
2018-05-24T03:26:09.877Z,17.60
2018-05-24T03:30:04.065Z,16.80
2018-05-24T03:33:57.242Z,16.80
2018-05-24T03:37:51.073Z,16.30
2018-05-24T03:41:44.168Z,16.10
2018-05-24T03:45:38.357Z,16.20
2018-05-24T03:49:31.590Z,16.20
2018-05-24T03:53:24.776Z,16.30
2018-05-24T03:57:18.605Z,16.40
2018-05-24T04:01:24.029Z,16.50
2018-05-24T04:05:17.420Z,16.60
2018-05-24T04:09:10.577Z,16.70
2018-05-24T04:13:03.908Z,16.70
2018-05-24T04:16:57.343Z,16.60
2018-05-24T04:20:51.410Z,16.50
2018-05-24T04:24:44.673Z,16.60
2018-05-24T04:28:39.551Z,16.50
2018-05-24T04:32:33.464Z,16.60
2018-05-24T04:36:26.680Z,16.70
2018-05-24T04:40:19.831Z,16.70
2018-05-24T04:44:13.006Z,16.80
2018-05-24T04:48:08.256Z,16.80
2018-05-24T04:52:02.878Z,17.00
2018-05-24T04:55:56.208Z,17.00
2018-05-24T04:59:50.256Z,17.00
2018-05-24T05:03:43.501Z,17.00
2018-05-24T05:07:36.703Z,16.90
2018-05-24T05:11:29.905Z,16.90
2018-05-24T05:15:26.445Z,16.90
2018-05-24T05:19:20.486Z,17.00
2018-05-24T05:23:13.773Z,17.00
2018-05-24T05:27:08.217Z,17.10
2018-05-24T05:31:02.969Z,17.00
2018-05-24T05:34:56.126Z,17.00
2018-05-24T05:38:49.291Z,17.00
2018-05-24T05:42:43.343Z,17.20
2018-05-24T05:46:37.940Z,17.20
2018-05-24T05:50:33.884Z,17.10
2018-05-24T05:58:52.254Z,17.00
2018-05-24T06:02:45.412Z,17.10
2018-05-24T06:06:38.585Z,17.00
2018-05-24T06:10:33.043Z,16.90
2018-05-24T06:14:26.380Z,16.90
2018-05-24T06:18:19.689Z,16.80
2018-05-24T06:22:12.954Z,16.80
2018-05-24T06:26:06.870Z,17.10
2018-05-24T06:30:00.588Z,17.10
2018-05-24T06:33:54.567Z,17.40
2018-05-24T06:41:48.528Z,17.90
2018-05-24T06:45:48.570Z,17.80
2018-05-24T06:49:42.975Z,17.50
2018-05-24T06:53:36.361Z,17.40
2018-05-24T06:57:29.497Z,17.60
2018-05-24T07:01:22.847Z,17.70
2018-05-24T07:05:18.197Z,17.50
2018-05-24T07:09:11.356Z,17.60
2018-05-24T07:13:04.488Z,17.50
2018-05-24T07:16:57.686Z,17.50
2018-05-24T07:25:15.077Z,17.80
2018-05-24T07:29:08.391Z,17.60
2018-05-24T07:33:03.226Z,17.50
2018-05-24T07:36:58.004Z,17.60
2018-05-24T07:40:51.257Z,17.70
2018-05-24T07:44:46.411Z,17.60
2018-05-24T07:48:40.062Z,17.60
2018-05-24T07:52:33.000Z,17.70
2018-05-24T07:56:26.244Z,17.70
2018-05-24T08:00:20.857Z,17.80
2018-05-24T08:04:14.111Z,17.80
2018-05-24T08:08:07.379Z,17.90
2018-05-24T08:12:01.606Z,17.90
2018-05-24T08:15:54.801Z,17.90
2018-05-24T08:19:48.134Z,17.70
2018-05-24T08:23:41.341Z,17.50
2018-05-24T08:27:36.673Z,17.90
2018-05-24T08:31:29.839Z,17.90
2018-05-24T08:35:22.996Z,18.10
2018-05-24T08:39:16.038Z,18.20
2018-05-24T08:43:11.455Z,18.10
2018-05-24T08:47:04.696Z,18.30
2018-05-24T08:50:57.825Z,18.40
2018-05-24T08:54:51.817Z,18.90
2018-05-24T08:58:45.190Z,18.90
2018-05-24T09:02:38.435Z,19.20
2018-05-24T09:06:31.691Z,19.50
2018-05-24T09:10:25.475Z,19.30
2018-05-24T09:14:19.462Z,19.10
2018-05-24T09:18:13.408Z,18.60
2018-05-24T09:22:06.719Z,18.60
2018-05-24T09:26:00.030Z,18.50
2018-05-24T09:29:53.293Z,18.40
2018-05-24T09:33:46.504Z,18.40
2018-05-24T09:37:39.422Z,18.50
2018-05-24T09:41:32.818Z,18.60
2018-05-24T09:45:26.012Z,18.80
2018-05-24T09:49:23.660Z,19.00
2018-05-24T09:53:16.958Z,19.10
2018-05-24T09:57:10.295Z,19.20
2018-05-24T10:01:03.499Z,19.10
2018-05-24T10:04:57.445Z,19.50
2018-05-24T10:08:51.907Z,19.40
2018-05-24T10:12:45.108Z,19.70
2018-05-24T10:16:39.145Z,19.80
2018-05-24T10:20:33.484Z,20.10
2018-05-24T10:24:29.381Z,20.30
2018-05-24T10:28:22.830Z,20.50
2018-05-24T10:32:16.817Z,20.80
2018-05-24T10:36:13.342Z,21.00
2018-05-24T10:40:07.984Z,21.40
2018-05-24T10:44:02.033Z,21.80
2018-05-24T10:47:56.165Z,21.80
2018-05-24T10:51:49.287Z,21.90
2018-05-24T10:55:42.697Z,21.90
2018-05-24T10:59:35.953Z,22.20
2018-05-24T11:03:31.489Z,22.30
2018-05-24T11:07:26.072Z,22.30
2018-05-24T11:11:19.955Z,22.20
2018-05-24T11:15:15.038Z,21.80
2018-05-24T11:19:09.512Z,22.00
2018-05-24T11:23:03.031Z,22.30
2018-05-24T11:26:57.008Z,22.70
2018-05-24T11:30:50.617Z,22.70
2018-05-24T11:34:44.068Z,22.90
2018-05-24T11:38:37.840Z,23.50
2018-05-24T11:42:33.359Z,23.30
2018-05-24T11:46:26.819Z,23.10
2018-05-24T11:50:21.244Z,23.00
2018-05-24T11:54:15.077Z,23.00
2018-05-24T11:58:08.244Z,23.20
2018-05-24T12:02:01.344Z,23.70
2018-05-24T12:05:55.037Z,24.20
2018-05-24T12:09:48.681Z,24.60
2018-05-24T12:13:42.716Z,24.70
2018-05-24T12:17:41.300Z,24.80
2018-05-24T12:21:35.376Z,24.90
2018-05-24T12:25:33.059Z,24.90
2018-05-24T12:29:26.288Z,24.60
2018-05-24T12:33:20.790Z,24.70
2018-05-24T12:37:14.186Z,25.20
2018-05-24T12:41:07.581Z,24.90
2018-05-24T12:45:01.100Z,24.80
2018-05-24T12:48:54.644Z,24.80
2018-05-24T12:52:47.723Z,24.90
2018-05-24T12:56:40.906Z,24.80
2018-05-24T13:00:34.129Z,24.90
2018-05-24T13:04:29.042Z,24.10
2018-05-24T13:08:24.617Z,23.70
2018-05-24T13:12:18.827Z,23.70
2018-05-24T13:16:15.045Z,23.50
2018-05-24T13:20:10.229Z,23.10
2018-05-24T13:24:04.676Z,22.60
2018-05-24T13:27:58.748Z,22.00
2018-05-24T13:31:54.074Z,22.00
2018-05-24T13:35:47.715Z,22.00
2018-05-24T13:39:41.207Z,22.00
2018-05-24T13:43:37.185Z,21.90
2018-05-24T13:47:31.732Z,21.40
2018-05-24T13:51:25.369Z,21.50
2018-05-24T13:55:19.340Z,21.40
2018-05-24T13:59:12.534Z,21.40
2018-05-24T14:03:05.929Z,21.30
2018-05-24T14:07:00.042Z,21.30
2018-05-24T14:10:54.028Z,21.30
2018-05-24T14:14:48.745Z,21.40
2018-05-24T14:18:42.845Z,21.60
2018-05-24T14:22:36.830Z,21.80
2018-05-24T14:26:32.079Z,21.70
2018-05-24T14:30:25.321Z,21.90
2018-05-24T14:34:18.720Z,22.00
2018-05-24T14:38:12.023Z,22.20
2018-05-24T14:42:05.723Z,22.60
2018-05-24T14:46:01.205Z,22.80
2018-05-24T14:49:54.418Z,22.50
2018-05-24T14:53:50.759Z,22.10
2018-05-24T14:57:44.185Z,22.00
2018-05-24T15:01:37.416Z,22.00
2018-05-24T15:05:30.754Z,21.80
2018-05-24T15:09:26.094Z,21.40
2018-05-24T15:13:31.875Z,21.40
2018-05-24T15:17:25.090Z,21.50
2018-05-24T15:21:20.236Z,21.70
2018-05-24T15:25:22.478Z,21.60
2018-05-24T15:29:15.733Z,21.60
2018-05-24T15:33:08.947Z,21.40
2018-05-24T15:37:02.327Z,21.50
2018-05-24T15:40:57.436Z,21.50
2018-05-24T15:44:50.436Z,21.80
2018-05-24T15:48:43.766Z,22.20
2018-05-24T15:52:38.727Z,22.40
2018-05-24T15:56:32.838Z,22.30
2018-05-24T16:00:25.947Z,22.40
2018-05-24T16:04:19.429Z,22.40
2018-05-24T16:08:14.496Z,22.40
2018-05-24T16:12:08.808Z,22.20
2018-05-24T16:16:01.986Z,21.90
2018-05-24T16:19:59.350Z,22.00
2018-05-24T16:23:55.286Z,22.00
2018-05-24T16:27:48.828Z,22.00
2018-05-24T16:31:42.934Z,22.00
2018-05-24T16:35:37.749Z,21.90
2018-05-24T16:39:31.088Z,22.00
2018-05-24T16:43:24.395Z,22.00
2018-05-24T16:47:17.719Z,21.90
2018-05-24T16:51:10.885Z,21.90
2018-05-24T16:55:05.011Z,21.80
2018-05-24T16:59:00.188Z,21.90
2018-05-24T17:02:53.309Z,21.80
2018-05-24T17:06:47.201Z,21.80
2018-05-24T17:10:41.211Z,21.60
2018-05-24T17:14:34.437Z,21.50
2018-05-24T17:18:28.903Z,21.50
2018-05-24T17:22:23.066Z,21.40
2018-05-24T17:26:17.213Z,21.20
2018-05-24T17:30:10.459Z,21.20
2018-05-24T17:34:03.648Z,21.20
2018-05-24T17:37:56.781Z,21.00
2018-05-24T17:41:50.830Z,20.80
2018-05-24T17:45:44.109Z,20.70
2018-05-24T17:49:37.256Z,20.60
2018-05-24T17:53:30.279Z,20.60
2018-05-24T17:57:24.107Z,20.70
2018-05-24T18:01:18.075Z,20.90
2018-05-24T18:05:11.301Z,20.80
2018-05-24T18:09:04.859Z,20.80
2018-05-24T18:12:58.027Z,21.00
2018-05-24T18:16:51.147Z,20.90
2018-05-24T18:20:44.739Z,20.80
2018-05-24T18:24:37.977Z,20.60
2018-05-24T18:28:33.919Z,20.60
2018-05-24T18:32:27.331Z,20.60
2018-05-24T18:36:20.738Z,20.50
2018-05-24T18:40:14.204Z,20.40
2018-05-24T18:44:08.096Z,20.40
2018-05-24T18:48:02.130Z,20.30
2018-05-24T18:51:55.503Z,20.30
2018-05-24T18:55:49.283Z,20.30
2018-05-24T19:09:13.338Z,20.10
2018-05-24T19:13:07.764Z,20.00
2018-05-24T19:17:02.278Z,20.10
2018-05-24T19:20:56.705Z,20.00
2018-05-24T19:24:50.599Z,20.10
2018-05-24T19:28:44.409Z,20.00
2018-05-24T19:32:38.606Z,20.00
2018-05-24T19:36:32.172Z,20.10
2018-05-24T19:40:27.714Z,20.00
2018-05-24T19:44:20.952Z,20.00
2018-05-24T19:48:15.345Z,20.00
2018-05-24T19:52:08.606Z,20.00
2018-05-24T19:56:02.447Z,19.90
2018-05-24T19:59:58.781Z,19.90
2018-05-24T20:03:51.935Z,19.90
2018-05-24T20:07:45.770Z,19.90
2018-05-24T20:11:39.351Z,19.80
2018-05-24T20:15:33.588Z,19.90
2018-05-24T20:19:26.783Z,19.80
2018-05-24T20:23:20.192Z,19.80
2018-05-24T20:27:13.455Z,19.70
2018-05-24T20:31:06.802Z,19.70
2018-05-24T20:34:59.986Z,19.70
2018-05-24T20:38:53.632Z,19.60
2018-05-24T20:42:46.894Z,19.60
2018-05-24T20:46:40.065Z,19.60
2018-05-24T20:50:33.474Z,19.60
2018-05-24T20:54:26.768Z,19.60
2018-05-24T20:58:20.036Z,19.50
2018-05-24T21:02:13.203Z,19.50
2018-05-24T21:06:07.161Z,19.50
2018-05-24T21:10:00.415Z,19.50
2018-05-24T21:13:53.645Z,19.40
2018-05-24T21:17:46.763Z,19.50
2018-05-24T21:21:39.953Z,19.40
2018-05-24T21:25:34.056Z,19.40
2018-05-24T21:29:27.817Z,19.40
2018-05-24T21:33:20.922Z,19.40
2018-05-24T21:37:14.920Z,19.30
2018-05-24T21:41:10.032Z,19.30
2018-05-24T21:45:03.993Z,19.20
2018-05-24T21:48:57.268Z,19.20
2018-05-24T21:52:50.456Z,19.10
2018-05-24T21:56:43.753Z,19.20
2018-05-24T22:00:36.945Z,19.00
2018-05-24T22:04:30.844Z,19.10
2018-05-24T22:08:24.034Z,18.90
2018-05-24T22:12:17.260Z,18.80
2018-05-24T22:16:10.677Z,18.80
2018-05-24T22:20:04.705Z,18.70
2018-05-24T22:23:57.842Z,18.70
2018-05-24T22:27:51.239Z,18.70
2018-05-24T22:31:44.695Z,18.60
2018-05-24T22:35:44.029Z,18.60
2018-05-24T22:39:37.809Z,18.60
2018-05-24T22:43:31.288Z,18.50
2018-05-24T22:47:24.533Z,18.50
2018-05-24T22:51:36.375Z,18.50
2018-05-24T22:55:29.509Z,18.50
2018-05-24T22:59:23.043Z,18.60
2018-05-24T23:03:19.655Z,18.50
2018-05-24T23:07:15.048Z,18.50
2018-05-24T23:11:10.675Z,18.50
2018-05-24T23:15:04.327Z,18.40
2018-05-24T23:18:57.513Z,18.30
2018-05-24T23:22:50.756Z,18.30
2018-05-24T23:26:43.985Z,18.30
2018-05-24T23:30:37.158Z,18.30
2018-05-24T23:34:30.265Z,18.30
2018-05-24T23:38:23.388Z,18.30
2018-05-24T23:42:16.882Z,18.20
2018-05-24T23:46:10.060Z,18.20
2018-05-24T23:50:03.258Z,18.10
2018-05-24T23:53:56.668Z,18.10
2018-05-24T23:57:49.796Z,18.10
